sensor_id;sensor_type;location;lat;lon;timestamp;P1;durP1;ratioP1;P2;durP2;ratioP2
19059;SDS011;9663;48.996;8.334;2024-03-23T00:53:38;3.97;;;1.90;;
19059;SDS011;9663;48.996;8.334;2024-03-23T00:56:03;4.43;;;1.60;;
19059;SDS011;9663;48.996;8.334;2024-03-23T00:58:29;4.68;;;1.67;;
19059;SDS011;9663;48.996;8.334;2024-03-23T01:00:55;3.63;;;1.55;;
19059;SDS011;9663;48.996;8.334;2024-03-23T01:03:21;3.65;;;1.73;;
19059;SDS011;9663;48.996;8.334;2024-03-23T01:05:47;3.58;;;1.60;;
19059;SDS011;9663;48.996;8.334;2024-03-23T01:08:13;4.00;;;1.80;;
19059;SDS011;9663;48.996;8.334;2024-03-23T01:10:40;3.90;;;2.00;;
19059;SDS011;9663;48.996;8.334;2024-03-23T01:13:05;3.63;;;1.67;;
19059;SDS011;9663;48.996;8.334;2024-03-23T01:15:31;4.05;;;1.67;;
19059;SDS011;9663;48.996;8.334;2024-03-23T01:17:57;4.50;;;2.00;;
19059;SDS011;9663;48.996;8.334;2024-03-23T01:20:22;3.90;;;1.80;;
19059;SDS011;9663;48.996;8.334;2024-03-23T01:22:48;4.00;;;1.90;;
19059;SDS011;9663;48.996;8.334;2024-03-23T01:25:14;4.35;;;1.98;;
19059;SDS011;9663;48.996;8.334;2024-03-23T01:27:39;4.30;;;1.95;;
19059;SDS011;9663;48.996;8.334;2024-03-23T01:30:05;4.07;;;1.88;;
19059;SDS011;9663;48.996;8.334;2024-03-23T01:32:32;3.60;;;1.75;;
19059;SDS011;9663;48.996;8.334;2024-03-23T01:34:58;4.10;;;1.77;;
19059;SDS011;9663;48.996;8.334;2024-03-23T01:37:23;4.00;;;1.75;;
19059;SDS011;9663;48.996;8.334;2024-03-23T01:39:49;4.30;;;1.80;;
19059;SDS011;9663;48.996;8.334;2024-03-23T01:42:16;4.03;;;1.77;;
19059;SDS011;9663;48.996;8.334;2024-03-23T01:44:41;3.63;;;1.58;;
19059;SDS011;9663;48.996;8.334;2024-03-23T01:47:07;3.70;;;1.60;;
19059;SDS011;9663;48.996;8.334;2024-03-23T01:49:33;4.00;;;1.88;;
19059;SDS011;9663;48.996;8.334;2024-03-23T01:51:59;3.70;;;1.67;;
19059;SDS011;9663;48.996;8.334;2024-03-23T01:54:25;4.15;;;1.90;;
19059;SDS011;9663;48.996;8.334;2024-03-23T01:56:51;4.20;;;1.95;;
19059;SDS011;9663;48.996;8.334;2024-03-23T01:59:17;3.65;;;1.60;;
19059;SDS011;9663;48.996;8.334;2024-03-23T02:01:42;4.45;;;1.90;;
19059;SDS011;9663;48.996;8.334;2024-03-23T02:04:08;3.80;;;1.67;;
19059;SDS011;9663;48.996;8.334;2024-03-23T02:06:34;4.85;;;2.00;;
19059;SDS011;9663;48.996;8.334;2024-03-23T02:09:00;3.17;;;1.52;;
19059;SDS011;9663;48.996;8.334;2024-03-23T02:11:26;4.28;;;1.95;;
19059;SDS011;9663;48.996;8.334;2024-03-23T02:13:53;4.25;;;1.70;;
19059;SDS011;9663;48.996;8.334;2024-03-23T02:16:19;4.30;;;1.83;;
19059;SDS011;9663;48.996;8.334;2024-03-23T02:18:44;4.50;;;1.92;;
19059;SDS011;9663;48.996;8.334;2024-03-23T02:21:10;4.13;;;1.75;;
19059;SDS011;9663;48.996;8.334;2024-03-23T02:23:36;4.28;;;1.80;;
19059;SDS011;9663;48.996;8.334;2024-03-23T02:26:02;4.72;;;2.08;;
19059;SDS011;9663;48.996;8.334;2024-03-23T02:28:27;4.28;;;1.80;;
19059;SDS011;9663;48.996;8.334;2024-03-23T02:30:53;4.63;;;1.73;;
19059;SDS011;9663;48.996;8.334;2024-03-23T02:33:19;5.63;;;2.20;;
19059;SDS011;9663;48.996;8.334;2024-03-23T02:35:45;4.78;;;2.13;;
19059;SDS011;9663;48.996;8.334;2024-03-23T02:38:11;4.22;;;1.92;;
19059;SDS011;9663;48.996;8.334;2024-03-23T02:40:37;4.07;;;1.80;;
19059;SDS011;9663;48.996;8.334;2024-03-23T02:43:03;3.72;;;1.70;;
19059;SDS011;9663;48.996;8.334;2024-03-23T02:45:29;3.90;;;1.80;;
19059;SDS011;9663;48.996;8.334;2024-03-23T02:47:56;3.38;;;1.38;;
19059;SDS011;9663;48.996;8.334;2024-03-23T02:50:22;3.60;;;1.65;;
19059;SDS011;9663;48.996;8.334;2024-03-23T02:52:48;4.38;;;1.77;;
19059;SDS011;9663;48.996;8.334;2024-03-23T02:55:14;4.75;;;1.88;;
19059;SDS011;9663;48.996;8.334;2024-03-23T02:57:40;4.13;;;1.70;;
19059;SDS011;9663;48.996;8.334;2024-03-23T03:00:06;3.63;;;1.70;;
19059;SDS011;9663;48.996;8.334;2024-03-23T03:02:35;3.92;;;1.70;;
19059;SDS011;9663;48.996;8.334;2024-03-23T03:05:02;5.10;;;2.00;;
19059;SDS011;9663;48.996;8.334;2024-03-23T03:07:30;4.20;;;2.08;;
19059;SDS011;9663;48.996;8.334;2024-03-23T03:09:57;4.63;;;2.10;;
19059;SDS011;9663;48.996;8.334;2024-03-23T03:12:24;4.57;;;2.25;;
19059;SDS011;9663;48.996;8.334;2024-03-23T03:14:49;4.65;;;2.17;;
19059;SDS011;9663;48.996;8.334;2024-03-23T03:17:15;4.20;;;2.10;;
19059;SDS011;9663;48.996;8.334;2024-03-23T03:19:41;4.60;;;2.42;;
19059;SDS011;9663;48.996;8.334;2024-03-23T03:22:06;5.32;;;2.83;;
19059;SDS011;9663;48.996;8.334;2024-03-23T03:24:32;4.35;;;2.22;;
19059;SDS011;9663;48.996;8.334;2024-03-23T03:26:58;5.65;;;2.50;;
19059;SDS011;9663;48.996;8.334;2024-03-23T03:29:23;5.20;;;2.50;;
19059;SDS011;9663;48.996;8.334;2024-03-23T03:31:49;5.45;;;2.65;;
19059;SDS011;9663;48.996;8.334;2024-03-23T03:34:15;5.75;;;3.05;;
19059;SDS011;9663;48.996;8.334;2024-03-23T03:36:41;5.68;;;3.15;;
19059;SDS011;9663;48.996;8.334;2024-03-23T03:39:07;5.00;;;2.80;;
19059;SDS011;9663;48.996;8.334;2024-03-23T03:41:32;6.32;;;3.17;;
19059;SDS011;9663;48.996;8.334;2024-03-23T03:43:58;6.90;;;3.30;;
19059;SDS011;9663;48.996;8.334;2024-03-23T03:46:27;7.30;;;3.85;;
19059;SDS011;9663;48.996;8.334;2024-03-23T03:48:54;5.80;;;3.53;;
19059;SDS011;9663;48.996;8.334;2024-03-23T03:51:20;5.55;;;3.50;;
19059;SDS011;9663;48.996;8.334;2024-03-23T03:53:46;5.68;;;3.00;;
19059;SDS011;9663;48.996;8.334;2024-03-23T03:56:11;5.00;;;3.08;;
19059;SDS011;9663;48.996;8.334;2024-03-23T03:58:37;7.10;;;3.42;;
19059;SDS011;9663;48.996;8.334;2024-03-23T04:01:03;7.93;;;4.47;;
19059;SDS011;9663;48.996;8.334;2024-03-23T04:03:28;6.05;;;3.30;;
19059;SDS011;9663;48.996;8.334;2024-03-23T04:05:54;6.25;;;3.53;;
19059;SDS011;9663;48.996;8.334;2024-03-23T04:08:20;6.32;;;3.40;;
19059;SDS011;9663;48.996;8.334;2024-03-23T04:10:46;5.25;;;3.10;;
19059;SDS011;9663;48.996;8.334;2024-03-23T04:13:13;6.88;;;3.72;;
19059;SDS011;9663;48.996;8.334;2024-03-23T04:15:39;6.25;;;3.70;;
19059;SDS011;9663;48.996;8.334;2024-03-23T04:18:05;5.65;;;3.40;;
19059;SDS011;9663;48.996;8.334;2024-03-23T04:20:31;6.63;;;3.70;;
19059;SDS011;9663;48.996;8.334;2024-03-23T04:22:57;8.35;;;4.65;;
19059;SDS011;9663;48.996;8.334;2024-03-23T04:25:24;6.18;;;3.90;;
19059;SDS011;9663;48.996;8.334;2024-03-23T04:27:50;6.22;;;4.22;;
19059;SDS011;9663;48.996;8.334;2024-03-23T04:30:16;6.13;;;3.72;;
19059;SDS011;9663;48.996;8.334;2024-03-23T04:32:42;5.50;;;3.45;;
19059;SDS011;9663;48.996;8.334;2024-03-23T04:35:08;5.63;;;3.42;;
19059;SDS011;9663;48.996;8.334;2024-03-23T04:37:38;5.40;;;3.30;;
19059;SDS011;9663;48.996;8.334;2024-03-23T04:40:06;6.03;;;3.47;;
19059;SDS011;9663;48.996;8.334;2024-03-23T04:42:32;5.22;;;2.70;;
19059;SDS011;9663;48.996;8.334;2024-03-23T04:44:58;5.78;;;3.13;;
19059;SDS011;9663;48.996;8.334;2024-03-23T04:47:24;6.30;;;3.00;;
19059;SDS011;9663;48.996;8.334;2024-03-23T04:49:50;5.78;;;3.40;;
19059;SDS011;9663;48.996;8.334;2024-03-23T04:52:17;5.60;;;3.15;;
19059;SDS011;9663;48.996;8.334;2024-03-23T04:54:43;4.45;;;2.50;;
19059;SDS011;9663;48.996;8.334;2024-03-23T04:57:10;4.43;;;2.50;;
19059;SDS011;9663;48.996;8.334;2024-03-23T04:59:36;4.10;;;2.10;;
19059;SDS011;9663;48.996;8.334;2024-03-23T05:02:02;4.32;;;2.03;;
19059;SDS011;9663;48.996;8.334;2024-03-23T05:04:28;4.95;;;2.30;;
19059;SDS011;9663;48.996;8.334;2024-03-23T05:06:54;4.45;;;2.30;;
19059;SDS011;9663;48.996;8.334;2024-03-23T05:09:19;3.97;;;1.95;;
19059;SDS011;9663;48.996;8.334;2024-03-23T05:11:46;4.45;;;1.75;;
19059;SDS011;9663;48.996;8.334;2024-03-23T05:14:13;4.30;;;2.08;;
19059;SDS011;9663;48.996;8.334;2024-03-23T05:16:39;3.38;;;1.55;;
19059;SDS011;9663;48.996;8.334;2024-03-23T05:19:05;3.88;;;1.63;;
19059;SDS011;9663;48.996;8.334;2024-03-23T05:21:31;3.17;;;1.48;;
19059;SDS011;9663;48.996;8.334;2024-03-23T05:23:56;3.22;;;1.25;;
19059;SDS011;9663;48.996;8.334;2024-03-23T05:26:22;2.90;;;1.10;;
19059;SDS011;9663;48.996;8.334;2024-03-23T05:28:48;3.10;;;1.10;;
19059;SDS011;9663;48.996;8.334;2024-03-23T05:31:27;1.88;;;0.80;;
19059;SDS011;9663;48.996;8.334;2024-03-23T05:33:55;2.58;;;1.08;;
19059;SDS011;9663;48.996;8.334;2024-03-23T05:36:21;1.60;;;0.68;;
19059;SDS011;9663;48.996;8.334;2024-03-23T05:38:47;2.03;;;1.00;;
19059;SDS011;9663;48.996;8.334;2024-03-23T05:41:13;2.30;;;0.80;;
19059;SDS011;9663;48.996;8.334;2024-03-23T05:43:39;2.33;;;0.77;;
19059;SDS011;9663;48.996;8.334;2024-03-23T05:46:05;1.77;;;0.70;;
19059;SDS011;9663;48.996;8.334;2024-03-23T05:48:30;2.20;;;0.82;;
19059;SDS011;9663;48.996;8.334;2024-03-23T05:50:57;1.70;;;0.80;;
19059;SDS011;9663;48.996;8.334;2024-03-23T05:53:23;1.48;;;0.80;;
19059;SDS011;9663;48.996;8.334;2024-03-23T05:55:49;1.92;;;0.70;;
19059;SDS011;9663;48.996;8.334;2024-03-23T05:58:19;1.33;;;0.60;;
19059;SDS011;9663;48.996;8.334;2024-03-23T06:00:47;2.03;;;0.70;;
19059;SDS011;9663;48.996;8.334;2024-03-23T06:03:13;1.48;;;0.70;;
19059;SDS011;9663;48.996;8.334;2024-03-23T06:05:39;1.40;;;0.50;;
19059;SDS011;9663;48.996;8.334;2024-03-23T06:08:05;1.02;;;0.50;;
19059;SDS011;9663;48.996;8.334;2024-03-23T06:10:32;0.90;;;0.60;;
19059;SDS011;9663;48.996;8.334;2024-03-23T06:12:58;1.10;;;0.50;;
19059;SDS011;9663;48.996;8.334;2024-03-23T06:15:25;1.05;;;0.55;;
19059;SDS011;9663;48.996;8.334;2024-03-23T06:17:52;1.02;;;0.60;;
19059;SDS011;9663;48.996;8.334;2024-03-23T06:20:18;1.05;;;0.50;;
19059;SDS011;9663;48.996;8.334;2024-03-23T06:22:43;0.80;;;0.40;;
19059;SDS011;9663;48.996;8.334;2024-03-23T06:25:09;0.98;;;0.50;;
19059;SDS011;9663;48.996;8.334;2024-03-23T06:27:37;0.95;;;0.47;;
19059;SDS011;9663;48.996;8.334;2024-03-23T06:30:04;0.90;;;0.50;;
19059;SDS011;9663;48.996;8.334;2024-03-23T06:32:32;0.60;;;0.43;;
19059;SDS011;9663;48.996;8.334;2024-03-23T06:34:58;1.10;;;0.47;;
19059;SDS011;9663;48.996;8.334;2024-03-23T06:37:24;1.13;;;0.55;;
19059;SDS011;9663;48.996;8.334;2024-03-23T06:39:49;1.27;;;0.60;;
19059;SDS011;9663;48.996;8.334;2024-03-23T06:42:15;0.65;;;0.40;;
19059;SDS011;9663;48.996;8.334;2024-03-23T06:44:41;0.80;;;0.50;;
19059;SDS011;9663;48.996;8.334;2024-03-23T06:47:06;0.65;;;0.40;;
19059;SDS011;9663;48.996;8.334;2024-03-23T06:49:32;0.85;;;0.50;;
19059;SDS011;9663;48.996;8.334;2024-03-23T06:51:58;0.60;;;0.40;;
19059;SDS011;9663;48.996;8.334;2024-03-23T06:54:24;1.13;;;0.50;;
19059;SDS011;9663;48.996;8.334;2024-03-23T06:56:50;0.90;;;0.40;;
19059;SDS011;9663;48.996;8.334;2024-03-23T06:59:16;0.63;;;0.40;;
19059;SDS011;9663;48.996;8.334;2024-03-23T07:01:42;0.80;;;0.50;;
19059;SDS011;9663;48.996;8.334;2024-03-23T07:04:08;0.57;;;0.40;;
19059;SDS011;9663;48.996;8.334;2024-03-23T07:06:34;0.60;;;0.40;;
19059;SDS011;9663;48.996;8.334;2024-03-23T07:09:09;0.77;;;0.40;;
19059;SDS011;9663;48.996;8.334;2024-03-23T07:11:35;0.85;;;0.40;;
19059;SDS011;9663;48.996;8.334;2024-03-23T07:14:00;1.33;;;0.50;;
19059;SDS011;9663;48.996;8.334;2024-03-23T07:16:27;0.65;;;0.40;;
19059;SDS011;9663;48.996;8.334;2024-03-23T07:18:53;0.60;;;0.40;;
19059;SDS011;9663;48.996;8.334;2024-03-23T07:21:19;0.60;;;0.40;;
19059;SDS011;9663;48.996;8.334;2024-03-23T07:23:45;0.88;;;0.40;;
19059;SDS011;9663;48.996;8.334;2024-03-23T07:26:11;0.68;;;0.43;;
19059;SDS011;9663;48.996;8.334;2024-03-23T07:28:37;0.60;;;0.40;;
19059;SDS011;9663;48.996;8.334;2024-03-23T07:31:08;2.75;;;1.27;;
19059;SDS011;9663;48.996;8.334;2024-03-23T07:33:37;1.38;;;0.60;;
19059;SDS011;9663;48.996;8.334;2024-03-23T07:36:07;1.55;;;0.60;;
19059;SDS011;9663;48.996;8.334;2024-03-23T07:38:34;1.15;;;0.60;;
19059;SDS011;9663;48.996;8.334;2024-03-23T07:41:06;1.15;;;0.60;;
19059;SDS011;9663;48.996;8.334;2024-03-23T07:43:34;1.27;;;0.40;;
19059;SDS011;9663;48.996;8.334;2024-03-23T07:46:02;0.60;;;0.40;;
19059;SDS011;9663;48.996;8.334;2024-03-23T07:48:29;0.70;;;0.40;;
19059;SDS011;9663;48.996;8.334;2024-03-23T07:50:56;0.82;;;0.40;;
19059;SDS011;9663;48.996;8.334;2024-03-23T07:53:25;0.95;;;0.47;;
19059;SDS011;9663;48.996;8.334;2024-03-23T07:55:55;1.00;;;0.50;;
19059;SDS011;9663;48.996;8.334;2024-03-23T07:58:29;0.90;;;0.50;;
19059;SDS011;9663;48.996;8.334;2024-03-23T08:00:55;1.23;;;0.47;;
19059;SDS011;9663;48.996;8.334;2024-03-23T08:03:21;2.67;;;0.75;;
19059;SDS011;9663;48.996;8.334;2024-03-23T08:05:47;0.95;;;0.50;;
19059;SDS011;9663;48.996;8.334;2024-03-23T08:08:14;1.15;;;0.50;;
19059;SDS011;9663;48.996;8.334;2024-03-23T08:10:52;1.60;;;0.50;;
19059;SDS011;9663;48.996;8.334;2024-03-23T08:13:18;1.80;;;0.60;;
19059;SDS011;9663;48.996;8.334;2024-03-23T08:15:45;2.65;;;1.00;;
19059;SDS011;9663;48.996;8.334;2024-03-23T08:18:12;2.03;;;0.70;;
19059;SDS011;9663;48.996;8.334;2024-03-23T08:20:40;3.78;;;1.10;;
19059;SDS011;9663;48.996;8.334;2024-03-23T08:23:07;3.58;;;1.08;;
19059;SDS011;9663;48.996;8.334;2024-03-23T08:25:33;2.88;;;1.08;;
19059;SDS011;9663;48.996;8.334;2024-03-23T08:28:00;3.25;;;1.10;;
19059;SDS011;9663;48.996;8.334;2024-03-23T08:30:26;2.97;;;1.13;;
19059;SDS011;9663;48.996;8.334;2024-03-23T08:32:54;7.78;;;1.85;;
19059;SDS011;9663;48.996;8.334;2024-03-23T08:35:20;7.13;;;2.00;;
19059;SDS011;9663;48.996;8.334;2024-03-23T08:37:46;6.20;;;1.35;;
19059;SDS011;9663;48.996;8.334;2024-03-23T08:40:12;4.45;;;1.50;;
19059;SDS011;9663;48.996;8.334;2024-03-23T08:42:37;5.43;;;1.48;;
19059;SDS011;9663;48.996;8.334;2024-03-23T08:45:03;4.07;;;1.35;;
19059;SDS011;9663;48.996;8.334;2024-03-23T08:47:33;2.38;;;0.90;;
19059;SDS011;9663;48.996;8.334;2024-03-23T08:50:02;3.45;;;0.95;;
19059;SDS011;9663;48.996;8.334;2024-03-23T08:52:28;4.30;;;1.10;;
19059;SDS011;9663;48.996;8.334;2024-03-23T08:54:54;3.75;;;1.23;;
19059;SDS011;9663;48.996;8.334;2024-03-23T08:57:22;4.05;;;1.30;;
19059;SDS011;9663;48.996;8.334;2024-03-23T08:59:48;3.47;;;1.10;;
19059;SDS011;9663;48.996;8.334;2024-03-23T09:02:14;4.95;;;1.23;;
19059;SDS011;9663;48.996;8.334;2024-03-23T09:04:40;4.43;;;1.20;;
19059;SDS011;9663;48.996;8.334;2024-03-23T09:07:06;3.78;;;1.30;;
19059;SDS011;9663;48.996;8.334;2024-03-23T09:09:31;3.88;;;1.27;;
19059;SDS011;9663;48.996;8.334;2024-03-23T09:11:57;3.63;;;1.23;;
19059;SDS011;9663;48.996;8.334;2024-03-23T09:14:23;4.65;;;1.27;;
19059;SDS011;9663;48.996;8.334;2024-03-23T09:16:51;3.53;;;1.25;;
19059;SDS011;9663;48.996;8.334;2024-03-23T09:19:17;3.20;;;1.20;;
19059;SDS011;9663;48.996;8.334;2024-03-23T09:21:43;3.97;;;1.17;;
19059;SDS011;9663;48.996;8.334;2024-03-23T09:24:09;3.95;;;1.20;;
19059;SDS011;9663;48.996;8.334;2024-03-23T09:26:34;5.07;;;1.55;;
19059;SDS011;9663;48.996;8.334;2024-03-23T09:29:00;4.63;;;1.63;;
19059;SDS011;9663;48.996;8.334;2024-03-23T09:31:26;5.03;;;1.60;;
19059;SDS011;9663;48.996;8.334;2024-03-23T09:33:51;5.47;;;2.03;;
19059;SDS011;9663;48.996;8.334;2024-03-23T09:36:17;3.87;;;1.30;;
19059;SDS011;9663;48.996;8.334;2024-03-23T09:38:43;4.85;;;1.52;;
19059;SDS011;9663;48.996;8.334;2024-03-23T09:41:09;4.20;;;1.43;;
19059;SDS011;9663;48.996;8.334;2024-03-23T09:43:35;4.28;;;1.30;;
19059;SDS011;9663;48.996;8.334;2024-03-23T09:46:01;4.45;;;1.40;;
19059;SDS011;9663;48.996;8.334;2024-03-23T09:48:28;4.90;;;1.80;;
19059;SDS011;9663;48.996;8.334;2024-03-23T09:50:56;5.80;;;1.80;;
19059;SDS011;9663;48.996;8.334;2024-03-23T09:53:22;3.78;;;1.30;;
19059;SDS011;9663;48.996;8.334;2024-03-23T09:55:48;3.38;;;1.15;;
19059;SDS011;9663;48.996;8.334;2024-03-23T09:58:15;3.92;;;1.48;;
19059;SDS011;9663;48.996;8.334;2024-03-23T10:00:42;4.28;;;1.60;;
19059;SDS011;9663;48.996;8.334;2024-03-23T10:03:08;4.30;;;1.50;;
19059;SDS011;9663;48.996;8.334;2024-03-23T10:05:36;3.50;;;1.35;;
19059;SDS011;9663;48.996;8.334;2024-03-23T10:10:41;5.30;;;1.50;;
19059;SDS011;9663;48.996;8.334;2024-03-23T10:13:07;3.88;;;1.25;;
19059;SDS011;9663;48.996;8.334;2024-03-23T10:15:33;3.13;;;1.30;;
19059;SDS011;9663;48.996;8.334;2024-03-23T10:18:19;3.10;;;1.30;;
19059;SDS011;9663;48.996;8.334;2024-03-23T10:20:50;4.60;;;1.50;;
19059;SDS011;9663;48.996;8.334;2024-03-23T10:23:34;3.65;;;1.20;;
19059;SDS011;9663;48.996;8.334;2024-03-23T10:26:12;4.18;;;1.20;;
19059;SDS011;9663;48.996;8.334;2024-03-23T10:31:35;4.10;;;1.50;;
19059;SDS011;9663;48.996;8.334;2024-03-23T10:34:02;3.45;;;1.20;;
19059;SDS011;9663;48.996;8.334;2024-03-23T10:36:28;3.58;;;1.40;;
19059;SDS011;9663;48.996;8.334;2024-03-23T10:38:55;5.40;;;2.00;;
19059;SDS011;9663;48.996;8.334;2024-03-23T10:41:24;5.55;;;1.80;;
19059;SDS011;9663;48.996;8.334;2024-03-23T10:43:53;3.45;;;1.40;;
19059;SDS011;9663;48.996;8.334;2024-03-23T10:46:21;5.30;;;1.50;;
19059;SDS011;9663;48.996;8.334;2024-03-23T10:48:46;2.70;;;1.13;;
19059;SDS011;9663;48.996;8.334;2024-03-23T10:51:14;3.63;;;1.20;;
19059;SDS011;9663;48.996;8.334;2024-03-23T10:53:40;3.20;;;1.20;;
19059;SDS011;9663;48.996;8.334;2024-03-23T10:56:06;3.30;;;1.15;;
19059;SDS011;9663;48.996;8.334;2024-03-23T11:01:11;3.65;;;1.13;;
19059;SDS011;9663;48.996;8.334;2024-03-23T11:03:39;3.75;;;1.23;;
19059;SDS011;9663;48.996;8.334;2024-03-23T11:06:10;4.35;;;1.17;;
19059;SDS011;9663;48.996;8.334;2024-03-23T11:09:03;3.20;;;1.20;;
19059;SDS011;9663;48.996;8.334;2024-03-23T11:11:29;2.55;;;1.10;;
19059;SDS011;9663;48.996;8.334;2024-03-23T11:13:57;3.92;;;1.30;;
19059;SDS011;9663;48.996;8.334;2024-03-23T11:16:28;3.28;;;1.17;;
19059;SDS011;9663;48.996;8.334;2024-03-23T11:22:01;3.30;;;1.02;;
19059;SDS011;9663;48.996;8.334;2024-03-23T11:24:28;4.03;;;1.15;;
19059;SDS011;9663;48.996;8.334;2024-03-23T11:26:54;4.35;;;1.10;;
19059;SDS011;9663;48.996;8.334;2024-03-23T11:29:20;4.78;;;1.20;;
19059;SDS011;9663;48.996;8.334;2024-03-23T11:31:49;4.05;;;1.10;;
19059;SDS011;9663;48.996;8.334;2024-03-23T11:34:16;3.17;;;1.10;;
19059;SDS011;9663;48.996;8.334;2024-03-23T11:36:43;2.95;;;0.95;;
19059;SDS011;9663;48.996;8.334;2024-03-23T11:39:16;3.60;;;1.05;;
19059;SDS011;9663;48.996;8.334;2024-03-23T11:44:19;3.20;;;1.02;;
19059;SDS011;9663;48.996;8.334;2024-03-23T11:46:49;3.35;;;0.95;;
19059;SDS011;9663;48.996;8.334;2024-03-23T11:49:23;3.50;;;1.10;;
19059;SDS011;9663;48.996;8.334;2024-03-23T11:51:54;4.10;;;1.10;;
19059;SDS011;9663;48.996;8.334;2024-03-23T11:54:22;2.92;;;1.00;;
19059;SDS011;9663;48.996;8.334;2024-03-23T11:59:33;4.30;;;1.13;;
19059;SDS011;9663;48.996;8.334;2024-03-23T12:02:09;2.78;;;1.10;;
19059;SDS011;9663;48.996;8.334;2024-03-23T12:04:37;3.35;;;1.17;;
19059;SDS011;9663;48.996;8.334;2024-03-23T12:07:11;5.10;;;1.17;;
19059;SDS011;9663;48.996;8.334;2024-03-23T12:09:45;3.05;;;1.10;;
19059;SDS011;9663;48.996;8.334;2024-03-23T12:12:16;5.07;;;1.65;;
19059;SDS011;9663;48.996;8.334;2024-03-23T12:14:43;3.53;;;1.30;;
19059;SDS011;9663;48.996;8.334;2024-03-23T12:17:11;4.07;;;1.10;;
19059;SDS011;9663;48.996;8.334;2024-03-23T12:19:39;4.95;;;1.63;;
19059;SDS011;9663;48.996;8.334;2024-03-23T12:22:10;3.78;;;1.50;;
19059;SDS011;9663;48.996;8.334;2024-03-23T12:24:36;4.60;;;1.25;;
19059;SDS011;9663;48.996;8.334;2024-03-23T12:27:05;5.45;;;1.73;;
19059;SDS011;9663;48.996;8.334;2024-03-23T12:29:31;4.47;;;1.45;;
19059;SDS011;9663;48.996;8.334;2024-03-23T12:32:00;5.53;;;1.60;;
19059;SDS011;9663;48.996;8.334;2024-03-23T12:34:28;4.00;;;1.27;;
19059;SDS011;9663;48.996;8.334;2024-03-23T12:36:55;5.03;;;1.15;;
19059;SDS011;9663;48.996;8.334;2024-03-23T12:39:21;3.88;;;1.00;;
19059;SDS011;9663;48.996;8.334;2024-03-23T12:41:47;3.45;;;1.10;;
19059;SDS011;9663;48.996;8.334;2024-03-23T12:44:14;3.65;;;1.20;;
19059;SDS011;9663;48.996;8.334;2024-03-23T12:46:43;3.58;;;1.02;;
19059;SDS011;9663;48.996;8.334;2024-03-23T12:49:10;3.75;;;1.10;;
19059;SDS011;9663;48.996;8.334;2024-03-23T12:51:36;4.28;;;1.10;;
19059;SDS011;9663;48.996;8.334;2024-03-23T12:54:02;3.88;;;1.35;;
19059;SDS011;9663;48.996;8.334;2024-03-23T12:56:28;5.22;;;1.60;;
19059;SDS011;9663;48.996;8.334;2024-03-23T12:58:55;3.97;;;1.27;;
19059;SDS011;9663;48.996;8.334;2024-03-23T13:01:22;4.07;;;1.27;;
19059;SDS011;9663;48.996;8.334;2024-03-23T13:03:51;3.50;;;1.00;;
19059;SDS011;9663;48.996;8.334;2024-03-23T13:06:17;2.65;;;1.08;;
19059;SDS011;9663;48.996;8.334;2024-03-23T13:08:44;2.50;;;1.00;;
19059;SDS011;9663;48.996;8.334;2024-03-23T13:11:15;2.03;;;0.77;;
19059;SDS011;9663;48.996;8.334;2024-03-23T13:13:40;1.92;;;0.70;;
19059;SDS011;9663;48.996;8.334;2024-03-23T13:16:07;2.95;;;0.80;;
19059;SDS011;9663;48.996;8.334;2024-03-23T13:18:33;3.47;;;0.82;;
19059;SDS011;9663;48.996;8.334;2024-03-23T13:20:59;1.65;;;0.60;;
19059;SDS011;9663;48.996;8.334;2024-03-23T13:23:24;1.95;;;0.70;;
19059;SDS011;9663;48.996;8.334;2024-03-23T13:28:21;3.40;;;0.90;;
19059;SDS011;9663;48.996;8.334;2024-03-23T13:30:54;2.83;;;0.90;;
19059;SDS011;9663;48.996;8.334;2024-03-23T13:33:22;3.15;;;0.73;;
19059;SDS011;9663;48.996;8.334;2024-03-23T13:35:52;2.95;;;0.73;;
19059;SDS011;9663;48.996;8.334;2024-03-23T13:38:19;5.38;;;0.90;;
19059;SDS011;9663;48.996;8.334;2024-03-23T13:40:51;3.83;;;1.23;;
19059;SDS011;9663;48.996;8.334;2024-03-23T13:43:18;2.67;;;0.98;;
19059;SDS011;9663;48.996;8.334;2024-03-23T13:45:44;1.88;;;0.70;;
19059;SDS011;9663;48.996;8.334;2024-03-23T13:48:11;2.05;;;0.70;;
19059;SDS011;9663;48.996;8.334;2024-03-23T13:50:37;2.85;;;0.70;;
19059;SDS011;9663;48.996;8.334;2024-03-23T13:53:03;1.90;;;0.70;;
19059;SDS011;9663;48.996;8.334;2024-03-23T13:55:28;2.15;;;0.70;;
19059;SDS011;9663;48.996;8.334;2024-03-23T13:57:54;1.92;;;0.75;;
19059;SDS011;9663;48.996;8.334;2024-03-23T14:00:20;1.65;;;0.70;;
19059;SDS011;9663;48.996;8.334;2024-03-23T14:02:46;2.28;;;0.90;;
19059;SDS011;9663;48.996;8.334;2024-03-23T14:05:11;2.30;;;0.73;;
19059;SDS011;9663;48.996;8.334;2024-03-23T14:07:37;2.80;;;0.80;;
19059;SDS011;9663;48.996;8.334;2024-03-23T14:10:03;2.75;;;0.95;;
19059;SDS011;9663;48.996;8.334;2024-03-23T14:12:31;2.67;;;0.73;;
19059;SDS011;9663;48.996;8.334;2024-03-23T14:14:57;3.03;;;0.82;;
19059;SDS011;9663;48.996;8.334;2024-03-23T14:17:23;1.60;;;0.70;;
19059;SDS011;9663;48.996;8.334;2024-03-23T14:19:48;2.05;;;0.82;;
19059;SDS011;9663;48.996;8.334;2024-03-23T14:22:15;2.17;;;0.68;;
19059;SDS011;9663;48.996;8.334;2024-03-23T14:24:44;1.48;;;0.55;;
19059;SDS011;9663;48.996;8.334;2024-03-23T14:27:10;4.32;;;0.73;;
19059;SDS011;9663;48.996;8.334;2024-03-23T14:29:36;1.20;;;0.47;;
19059;SDS011;9663;48.996;8.334;2024-03-23T14:32:01;2.28;;;0.65;;
19059;SDS011;9663;48.996;8.334;2024-03-23T14:34:27;1.48;;;0.50;;
19059;SDS011;9663;48.996;8.334;2024-03-23T14:36:56;2.45;;;0.70;;
19059;SDS011;9663;48.996;8.334;2024-03-23T14:39:24;2.55;;;0.73;;
19059;SDS011;9663;48.996;8.334;2024-03-23T14:41:50;1.30;;;0.60;;
19059;SDS011;9663;48.996;8.334;2024-03-23T14:44:16;1.52;;;0.60;;
19059;SDS011;9663;48.996;8.334;2024-03-23T14:46:41;1.63;;;0.60;;
19059;SDS011;9663;48.996;8.334;2024-03-23T14:49:08;1.55;;;0.60;;
19059;SDS011;9663;48.996;8.334;2024-03-23T14:51:33;1.38;;;0.60;;
19059;SDS011;9663;48.996;8.334;2024-03-23T14:54:00;2.08;;;0.70;;
19059;SDS011;9663;48.996;8.334;2024-03-23T14:56:26;2.08;;;0.80;;
19059;SDS011;9663;48.996;8.334;2024-03-23T14:58:54;2.22;;;0.82;;
19059;SDS011;9663;48.996;8.334;2024-03-23T15:01:21;3.08;;;0.88;;
19059;SDS011;9663;48.996;8.334;2024-03-23T15:03:46;2.33;;;0.70;;
19059;SDS011;9663;48.996;8.334;2024-03-23T15:06:12;2.45;;;0.82;;
19059;SDS011;9663;48.996;8.334;2024-03-23T15:08:38;2.10;;;0.70;;
19059;SDS011;9663;48.996;8.334;2024-03-23T15:11:05;1.85;;;0.80;;
19059;SDS011;9663;48.996;8.334;2024-03-23T15:13:32;1.85;;;0.75;;
19059;SDS011;9663;48.996;8.334;2024-03-23T15:15:59;1.92;;;0.65;;
19059;SDS011;9663;48.996;8.334;2024-03-23T15:18:25;2.88;;;0.70;;
19059;SDS011;9663;48.996;8.334;2024-03-23T15:23:27;1.95;;;0.70;;
19059;SDS011;9663;48.996;8.334;2024-03-23T15:28:21;1.48;;;0.60;;
19059;SDS011;9663;48.996;8.334;2024-03-23T15:31:04;1.80;;;0.60;;
19059;SDS011;9663;48.996;8.334;2024-03-23T15:33:30;2.08;;;0.70;;
19059;SDS011;9663;48.996;8.334;2024-03-23T15:36:02;1.80;;;0.60;;
19059;SDS011;9663;48.996;8.334;2024-03-23T15:38:30;2.30;;;0.75;;
19059;SDS011;9663;48.996;8.334;2024-03-23T15:40:57;2.10;;;0.60;;
19059;SDS011;9663;48.996;8.334;2024-03-23T15:43:23;1.77;;;0.60;;
19059;SDS011;9663;48.996;8.334;2024-03-23T15:46:02;1.35;;;0.50;;
19059;SDS011;9663;48.996;8.334;2024-03-23T15:48:30;1.65;;;0.60;;
19059;SDS011;9663;48.996;8.334;2024-03-23T15:51:02;2.00;;;0.60;;
19059;SDS011;9663;48.996;8.334;2024-03-23T15:53:32;1.80;;;0.60;;
19059;SDS011;9663;48.996;8.334;2024-03-23T15:55:58;2.45;;;0.82;;
19059;SDS011;9663;48.996;8.334;2024-03-23T15:58:26;2.13;;;0.70;;
19059;SDS011;9663;48.996;8.334;2024-03-23T16:03:26;2.38;;;0.55;;
19059;SDS011;9663;48.996;8.334;2024-03-23T16:06:00;2.53;;;0.65;;
19059;SDS011;9663;48.996;8.334;2024-03-23T16:08:28;2.78;;;0.80;;
19059;SDS011;9663;48.996;8.334;2024-03-23T16:10:59;1.75;;;0.60;;
19059;SDS011;9663;48.996;8.334;2024-03-23T16:13:27;1.58;;;0.60;;
19059;SDS011;9663;48.996;8.334;2024-03-23T16:15:56;1.48;;;0.60;;
19059;SDS011;9663;48.996;8.334;2024-03-23T16:18:23;2.53;;;0.88;;